sensor_id;sensor_type;location;lat;lon;timestamp;P1;durP1;ratioP1;P2;durP2;ratioP2
23632;SDS011;11993;48.748;9.166;2023-07-08T00:00:21;10.30;;;6.28;;
23632;SDS011;11993;48.748;9.166;2023-07-08T00:02:48;8.88;;;6.50;;
23632;SDS011;11993;48.748;9.166;2023-07-08T00:05:14;13.73;;;6.88;;
23632;SDS011;11993;48.748;9.166;2023-07-08T00:07:42;13.20;;;7.63;;
23632;SDS011;11993;48.748;9.166;2023-07-08T00:10:10;8.93;;;6.18;;
23632;SDS011;11993;48.748;9.166;2023-07-08T00:12:40;11.88;;;6.65;;
23632;SDS011;11993;48.748;9.166;2023-07-08T00:15:06;7.72;;;5.60;;
23632;SDS011;11993;48.748;9.166;2023-07-08T00:17:32;8.32;;;6.43;;
23632;SDS011;11993;48.748;9.166;2023-07-08T00:19:58;8.20;;;6.18;;
23632;SDS011;11993;48.748;9.166;2023-07-08T00:22:23;11.45;;;5.75;;
23632;SDS011;11993;48.748;9.166;2023-07-08T00:24:49;8.55;;;6.35;;
23632;SDS011;11993;48.748;9.166;2023-07-08T00:27:16;11.50;;;6.35;;
23632;SDS011;11993;48.748;9.166;2023-07-08T00:29:42;10.05;;;6.13;;
23632;SDS011;11993;48.748;9.166;2023-07-08T00:32:09;8.77;;;5.93;;
23632;SDS011;11993;48.748;9.166;2023-07-08T00:34:39;12.13;;;6.40;;
23632;SDS011;11993;48.748;9.166;2023-07-08T00:37:07;9.80;;;6.28;;
23632;SDS011;11993;48.748;9.166;2023-07-08T00:39:35;9.00;;;6.10;;
23632;SDS011;11993;48.748;9.166;2023-07-08T00:42:01;10.23;;;6.15;;
23632;SDS011;11993;48.748;9.166;2023-07-08T00:44:38;9.05;;;6.07;;
23632;SDS011;11993;48.748;9.166;2023-07-08T00:47:08;10.63;;;6.43;;
23632;SDS011;11993;48.748;9.166;2023-07-08T00:49:45;11.75;;;6.57;;
23632;SDS011;11993;48.748;9.166;2023-07-08T00:52:23;11.75;;;6.78;;
23632;SDS011;11993;48.748;9.166;2023-07-08T00:54:51;12.05;;;6.57;;
23632;SDS011;11993;48.748;9.166;2023-07-08T00:57:22;9.88;;;6.88;;
23632;SDS011;11993;48.748;9.166;2023-07-08T01:00:12;9.68;;;6.30;;
23632;SDS011;11993;48.748;9.166;2023-07-08T01:02:42;14.02;;;6.90;;
23632;SDS011;11993;48.748;9.166;2023-07-08T01:05:14;11.00;;;6.72;;
23632;SDS011;11993;48.748;9.166;2023-07-08T01:07:44;10.00;;;6.82;;
23632;SDS011;11993;48.748;9.166;2023-07-08T01:10:22;12.75;;;6.65;;
23632;SDS011;11993;48.748;9.166;2023-07-08T01:12:54;10.63;;;6.57;;
23632;SDS011;11993;48.748;9.166;2023-07-08T01:15:23;12.13;;;6.70;;
23632;SDS011;11993;48.748;9.166;2023-07-08T01:17:53;11.35;;;6.60;;
23632;SDS011;11993;48.748;9.166;2023-07-08T01:20:19;13.93;;;7.03;;
23632;SDS011;11993;48.748;9.166;2023-07-08T01:22:45;11.15;;;6.32;;
23632;SDS011;11993;48.748;9.166;2023-07-08T01:25:11;11.65;;;6.28;;
23632;SDS011;11993;48.748;9.166;2023-07-08T01:27:39;12.77;;;6.90;;
23632;SDS011;11993;48.748;9.166;2023-07-08T01:30:10;9.82;;;6.80;;
23632;SDS011;11993;48.748;9.166;2023-07-08T01:32:37;7.88;;;5.97;;
23632;SDS011;11993;48.748;9.166;2023-07-08T01:35:08;10.45;;;6.50;;
23632;SDS011;11993;48.748;9.166;2023-07-08T01:37:37;9.35;;;6.72;;
23632;SDS011;11993;48.748;9.166;2023-07-08T01:40:29;7.60;;;6.05;;
23632;SDS011;11993;48.748;9.166;2023-07-08T01:42:56;13.85;;;6.53;;
23632;SDS011;11993;48.748;9.166;2023-07-08T01:45:24;10.95;;;6.63;;
23632;SDS011;11993;48.748;9.166;2023-07-08T01:50:54;9.23;;;6.68;;
23632;SDS011;11993;48.748;9.166;2023-07-08T01:53:42;11.30;;;6.32;;
23632;SDS011;11993;48.748;9.166;2023-07-08T01:56:09;8.82;;;6.22;;
23632;SDS011;11993;48.748;9.166;2023-07-08T01:58:38;8.45;;;6.18;;
23632;SDS011;11993;48.748;9.166;2023-07-08T02:01:03;8.15;;;5.88;;
23632;SDS011;11993;48.748;9.166;2023-07-08T02:03:30;9.38;;;6.18;;
23632;SDS011;11993;48.748;9.166;2023-07-08T02:05:56;10.68;;;6.70;;
23632;SDS011;11993;48.748;9.166;2023-07-08T02:08:21;8.85;;;5.85;;
23632;SDS011;11993;48.748;9.166;2023-07-08T02:10:51;8.38;;;6.10;;
23632;SDS011;11993;48.748;9.166;2023-07-08T02:13:19;8.80;;;6.82;;
23632;SDS011;11993;48.748;9.166;2023-07-08T02:15:46;8.57;;;6.18;;
23632;SDS011;11993;48.748;9.166;2023-07-08T02:18:12;10.02;;;6.53;;
23632;SDS011;11993;48.748;9.166;2023-07-08T02:20:38;10.40;;;7.00;;
23632;SDS011;11993;48.748;9.166;2023-07-08T02:23:03;10.02;;;5.85;;
23632;SDS011;11993;48.748;9.166;2023-07-08T02:25:29;10.25;;;6.78;;
23632;SDS011;11993;48.748;9.166;2023-07-08T02:27:54;7.90;;;5.35;;
23632;SDS011;11993;48.748;9.166;2023-07-08T02:30:22;13.55;;;7.03;;
23632;SDS011;11993;48.748;9.166;2023-07-08T02:32:48;12.27;;;6.38;;
23632;SDS011;11993;48.748;9.166;2023-07-08T02:35:22;9.75;;;6.30;;
23632;SDS011;11993;48.748;9.166;2023-07-08T02:37:52;10.85;;;6.47;;
23632;SDS011;11993;48.748;9.166;2023-07-08T02:40:18;8.07;;;6.07;;
23632;SDS011;11993;48.748;9.166;2023-07-08T02:42:44;11.80;;;6.57;;
23632;SDS011;11993;48.748;9.166;2023-07-08T02:45:10;11.48;;;6.70;;
23632;SDS011;11993;48.748;9.166;2023-07-08T02:47:37;12.35;;;5.95;;
23632;SDS011;11993;48.748;9.166;2023-07-08T02:50:02;11.10;;;6.30;;
23632;SDS011;11993;48.748;9.166;2023-07-08T02:52:29;9.38;;;6.43;;
23632;SDS011;11993;48.748;9.166;2023-07-08T02:54:55;8.13;;;6.35;;
23632;SDS011;11993;48.748;9.166;2023-07-08T02:57:20;10.02;;;6.47;;
23632;SDS011;11993;48.748;9.166;2023-07-08T02:59:46;14.15;;;6.80;;
23632;SDS011;11993;48.748;9.166;2023-07-08T03:02:11;9.15;;;6.32;;
23632;SDS011;11993;48.748;9.166;2023-07-08T03:04:37;16.02;;;6.95;;
23632;SDS011;11993;48.748;9.166;2023-07-08T03:07:04;11.68;;;6.85;;
23632;SDS011;11993;48.748;9.166;2023-07-08T03:09:31;10.00;;;6.43;;
23632;SDS011;11993;48.748;9.166;2023-07-08T03:11:57;9.57;;;6.35;;
23632;SDS011;11993;48.748;9.166;2023-07-08T03:14:23;13.68;;;7.28;;
23632;SDS011;11993;48.748;9.166;2023-07-08T03:16:49;15.00;;;6.88;;
23632;SDS011;11993;48.748;9.166;2023-07-08T03:19:15;10.70;;;7.05;;
23632;SDS011;11993;48.748;9.166;2023-07-08T03:21:42;12.10;;;7.13;;
23632;SDS011;11993;48.748;9.166;2023-07-08T03:24:10;9.32;;;6.47;;
23632;SDS011;11993;48.748;9.166;2023-07-08T03:26:37;9.15;;;6.45;;
23632;SDS011;11993;48.748;9.166;2023-07-08T03:29:02;12.18;;;6.05;;
23632;SDS011;11993;48.748;9.166;2023-07-08T03:31:29;10.73;;;5.95;;
23632;SDS011;11993;48.748;9.166;2023-07-08T03:33:55;14.55;;;6.75;;
23632;SDS011;11993;48.748;9.166;2023-07-08T03:36:20;10.95;;;6.32;;
23632;SDS011;11993;48.748;9.166;2023-07-08T03:38:52;9.73;;;6.82;;
23632;SDS011;11993;48.748;9.166;2023-07-08T03:41:20;13.82;;;6.80;;
23632;SDS011;11993;48.748;9.166;2023-07-08T03:43:46;8.55;;;6.25;;
23632;SDS011;11993;48.748;9.166;2023-07-08T03:46:13;16.95;;;6.60;;
23632;SDS011;11993;48.748;9.166;2023-07-08T03:48:40;8.25;;;5.80;;
23632;SDS011;11993;48.748;9.166;2023-07-08T03:51:15;12.23;;;6.90;;
23632;SDS011;11993;48.748;9.166;2023-07-08T03:53:46;11.27;;;6.15;;
23632;SDS011;11993;48.748;9.166;2023-07-08T03:56:12;8.95;;;6.80;;
23632;SDS011;11993;48.748;9.166;2023-07-08T03:58:38;9.48;;;6.22;;
23632;SDS011;11993;48.748;9.166;2023-07-08T04:01:03;12.68;;;6.88;;
23632;SDS011;11993;48.748;9.166;2023-07-08T04:03:29;11.23;;;6.15;;
23632;SDS011;11993;48.748;9.166;2023-07-08T04:05:55;9.85;;;6.75;;
23632;SDS011;11993;48.748;9.166;2023-07-08T04:08:21;10.90;;;6.70;;
23632;SDS011;11993;48.748;9.166;2023-07-08T04:10:46;9.70;;;6.00;;
23632;SDS011;11993;48.748;9.166;2023-07-08T04:13:12;10.98;;;6.40;;
23632;SDS011;11993;48.748;9.166;2023-07-08T04:15:37;10.25;;;6.35;;
23632;SDS011;11993;48.748;9.166;2023-07-08T04:18:03;10.48;;;6.25;;
23632;SDS011;11993;48.748;9.166;2023-07-08T04:20:29;10.57;;;6.47;;
23632;SDS011;11993;48.748;9.166;2023-07-08T04:22:54;10.55;;;6.72;;
23632;SDS011;11993;48.748;9.166;2023-07-08T04:25:20;12.63;;;7.93;;
23632;SDS011;11993;48.748;9.166;2023-07-08T04:27:46;18.02;;;9.73;;
23632;SDS011;11993;48.748;9.166;2023-07-08T04:30:30;18.50;;;13.27;;
23632;SDS011;11993;48.748;9.166;2023-07-08T04:32:56;15.00;;;9.63;;
23632;SDS011;11993;48.748;9.166;2023-07-08T04:35:22;19.48;;;14.23;;
23632;SDS011;11993;48.748;9.166;2023-07-08T04:37:47;9.93;;;7.00;;
23632;SDS011;11993;48.748;9.166;2023-07-08T04:40:16;8.98;;;6.53;;
23632;SDS011;11993;48.748;9.166;2023-07-08T04:42:44;9.20;;;6.45;;
23632;SDS011;11993;48.748;9.166;2023-07-08T04:45:12;10.73;;;6.88;;
23632;SDS011;11993;48.748;9.166;2023-07-08T04:47:39;10.73;;;6.25;;
23632;SDS011;11993;48.748;9.166;2023-07-08T04:50:04;9.45;;;6.60;;
23632;SDS011;11993;48.748;9.166;2023-07-08T04:52:30;9.18;;;6.55;;
23632;SDS011;11993;48.748;9.166;2023-07-08T04:54:56;11.52;;;6.47;;
23632;SDS011;11993;48.748;9.166;2023-07-08T04:57:21;10.25;;;6.13;;
23632;SDS011;11993;48.748;9.166;2023-07-08T04:59:47;16.33;;;6.90;;
23632;SDS011;11993;48.748;9.166;2023-07-08T05:02:12;9.88;;;6.75;;
23632;SDS011;11993;48.748;9.166;2023-07-08T05:04:39;12.77;;;6.88;;
23632;SDS011;11993;48.748;9.166;2023-07-08T05:07:04;11.10;;;6.35;;
23632;SDS011;11993;48.748;9.166;2023-07-08T05:09:30;10.63;;;6.45;;
23632;SDS011;11993;48.748;9.166;2023-07-08T05:11:56;20.73;;;13.45;;
23632;SDS011;11993;48.748;9.166;2023-07-08T05:14:22;11.05;;;6.75;;
23632;SDS011;11993;48.748;9.166;2023-07-08T05:16:47;11.68;;;6.88;;
23632;SDS011;11993;48.748;9.166;2023-07-08T05:19:13;11.02;;;7.18;;
23632;SDS011;11993;48.748;9.166;2023-07-08T05:21:39;12.60;;;6.88;;
23632;SDS011;11993;48.748;9.166;2023-07-08T05:24:05;11.43;;;7.38;;
23632;SDS011;11993;48.748;9.166;2023-07-08T05:26:31;12.30;;;7.55;;
23632;SDS011;11993;48.748;9.166;2023-07-08T05:28:58;11.65;;;7.28;;
23632;SDS011;11993;48.748;9.166;2023-07-08T05:31:23;13.60;;;7.05;;
23632;SDS011;11993;48.748;9.166;2023-07-08T05:33:49;10.05;;;6.75;;
23632;SDS011;11993;48.748;9.166;2023-07-08T05:36:15;10.65;;;6.80;;
23632;SDS011;11993;48.748;9.166;2023-07-08T05:38:41;10.23;;;6.75;;
23632;SDS011;11993;48.748;9.166;2023-07-08T05:41:06;10.68;;;7.45;;
23632;SDS011;11993;48.748;9.166;2023-07-08T05:43:32;8.63;;;6.70;;
23632;SDS011;11993;48.748;9.166;2023-07-08T05:46:00;13.55;;;7.15;;
23632;SDS011;11993;48.748;9.166;2023-07-08T05:48:27;12.27;;;6.85;;
23632;SDS011;11993;48.748;9.166;2023-07-08T05:50:52;12.77;;;6.53;;
23632;SDS011;11993;48.748;9.166;2023-07-08T05:53:18;9.50;;;6.63;;
23632;SDS011;11993;48.748;9.166;2023-07-08T05:55:45;11.02;;;7.00;;
23632;SDS011;11993;48.748;9.166;2023-07-08T05:58:11;12.13;;;7.15;;
23632;SDS011;11993;48.748;9.166;2023-07-08T06:00:40;10.35;;;7.13;;
23632;SDS011;11993;48.748;9.166;2023-07-08T06:03:06;13.43;;;6.85;;
23632;SDS011;11993;48.748;9.166;2023-07-08T06:05:32;9.90;;;7.05;;
23632;SDS011;11993;48.748;9.166;2023-07-08T06:07:58;9.43;;;6.47;;
23632;SDS011;11993;48.748;9.166;2023-07-08T06:10:24;9.85;;;6.53;;
23632;SDS011;11993;48.748;9.166;2023-07-08T06:12:50;12.98;;;7.32;;
23632;SDS011;11993;48.748;9.166;2023-07-08T06:15:15;9.45;;;6.53;;
23632;SDS011;11993;48.748;9.166;2023-07-08T06:17:41;9.30;;;6.60;;
23632;SDS011;11993;48.748;9.166;2023-07-08T06:20:06;9.07;;;6.72;;
23632;SDS011;11993;48.748;9.166;2023-07-08T06:22:32;10.10;;;7.03;;
23632;SDS011;11993;48.748;9.166;2023-07-08T06:24:58;9.38;;;6.45;;
23632;SDS011;11993;48.748;9.166;2023-07-08T06:27:23;9.90;;;6.93;;
23632;SDS011;11993;48.748;9.166;2023-07-08T06:29:50;9.50;;;6.15;;
23632;SDS011;11993;48.748;9.166;2023-07-08T06:32:15;10.23;;;6.45;;
23632;SDS011;11993;48.748;9.166;2023-07-08T06:34:41;11.07;;;7.13;;
23632;SDS011;11993;48.748;9.166;2023-07-08T06:37:06;10.68;;;7.03;;
23632;SDS011;11993;48.748;9.166;2023-07-08T06:39:32;7.93;;;5.78;;
23632;SDS011;11993;48.748;9.166;2023-07-08T06:41:58;10.73;;;6.47;;
23632;SDS011;11993;48.748;9.166;2023-07-08T06:44:23;10.13;;;6.03;;
23632;SDS011;11993;48.748;9.166;2023-07-08T06:46:50;9.80;;;7.00;;
23632;SDS011;11993;48.748;9.166;2023-07-08T06:49:16;10.05;;;6.22;;
23632;SDS011;11993;48.748;9.166;2023-07-08T06:51:42;13.40;;;6.10;;
23632;SDS011;11993;48.748;9.166;2023-07-08T06:54:10;12.57;;;6.50;;
23632;SDS011;11993;48.748;9.166;2023-07-08T06:56:39;11.15;;;5.60;;
23632;SDS011;11993;48.748;9.166;2023-07-08T06:59:06;9.82;;;5.40;;
23632;SDS011;11993;48.748;9.166;2023-07-08T07:01:35;9.38;;;5.70;;
23632;SDS011;11993;48.748;9.166;2023-07-08T07:04:02;10.13;;;5.13;;
23632;SDS011;11993;48.748;9.166;2023-07-08T07:06:28;9.35;;;5.07;;
23632;SDS011;11993;48.748;9.166;2023-07-08T07:08:54;7.15;;;4.88;;
23632;SDS011;11993;48.748;9.166;2023-07-08T07:11:19;10.70;;;5.68;;
23632;SDS011;11993;48.748;9.166;2023-07-08T07:13:45;7.07;;;3.92;;
23632;SDS011;11993;48.748;9.166;2023-07-08T07:16:14;7.43;;;5.03;;
23632;SDS011;11993;48.748;9.166;2023-07-08T07:18:43;8.50;;;4.47;;
23632;SDS011;11993;48.748;9.166;2023-07-08T07:21:09;7.88;;;4.57;;
23632;SDS011;11993;48.748;9.166;2023-07-08T07:23:35;7.43;;;4.80;;
23632;SDS011;11993;48.748;9.166;2023-07-08T07:26:00;7.35;;;4.45;;
23632;SDS011;11993;48.748;9.166;2023-07-08T07:28:28;8.55;;;4.10;;
23632;SDS011;11993;48.748;9.166;2023-07-08T07:30:57;8.48;;;4.18;;
23632;SDS011;11993;48.748;9.166;2023-07-08T07:33:25;5.78;;;4.03;;
23632;SDS011;11993;48.748;9.166;2023-07-08T07:35:51;5.32;;;3.90;;
23632;SDS011;11993;48.748;9.166;2023-07-08T07:38:17;7.75;;;4.22;;
23632;SDS011;11993;48.748;9.166;2023-07-08T07:40:42;9.93;;;4.38;;
23632;SDS011;11993;48.748;9.166;2023-07-08T07:43:08;6.75;;;3.88;;
23632;SDS011;11993;48.748;9.166;2023-07-08T07:45:34;11.10;;;4.82;;
23632;SDS011;11993;48.748;9.166;2023-07-08T07:48:00;8.27;;;4.10;;
23632;SDS011;11993;48.748;9.166;2023-07-08T07:50:26;9.45;;;4.43;;
23632;SDS011;11993;48.748;9.166;2023-07-08T07:52:52;6.57;;;4.18;;
23632;SDS011;11993;48.748;9.166;2023-07-08T07:55:17;6.45;;;3.85;;
23632;SDS011;11993;48.748;9.166;2023-07-08T07:57:43;6.20;;;4.05;;
23632;SDS011;11993;48.748;9.166;2023-07-08T08:00:10;5.85;;;3.80;;
23632;SDS011;11993;48.748;9.166;2023-07-08T08:02:37;9.52;;;4.10;;
23632;SDS011;11993;48.748;9.166;2023-07-08T08:05:02;7.38;;;3.95;;
23632;SDS011;11993;48.748;9.166;2023-07-08T08:07:28;10.75;;;4.43;;
23632;SDS011;11993;48.748;9.166;2023-07-08T08:09:54;15.02;;;4.72;;
23632;SDS011;11993;48.748;9.166;2023-07-08T08:12:20;9.77;;;3.97;;
23632;SDS011;11993;48.748;9.166;2023-07-08T08:14:47;10.85;;;4.10;;
23632;SDS011;11993;48.748;9.166;2023-07-08T08:17:12;6.63;;;3.78;;
23632;SDS011;11993;48.748;9.166;2023-07-08T08:19:38;7.93;;;3.90;;
23632;SDS011;11993;48.748;9.166;2023-07-08T08:22:03;7.72;;;4.18;;
23632;SDS011;11993;48.748;9.166;2023-07-08T08:24:29;7.95;;;4.03;;
23632;SDS011;11993;48.748;9.166;2023-07-08T08:26:54;9.75;;;3.60;;
23632;SDS011;11993;48.748;9.166;2023-07-08T08:29:20;9.63;;;3.70;;
23632;SDS011;11993;48.748;9.166;2023-07-08T08:31:46;6.65;;;4.00;;
23632;SDS011;11993;48.748;9.166;2023-07-08T08:34:11;7.05;;;3.35;;
23632;SDS011;11993;48.748;9.166;2023-07-08T08:36:37;7.55;;;3.42;;
23632;SDS011;11993;48.748;9.166;2023-07-08T08:39:02;5.30;;;3.30;;
23632;SDS011;11993;48.748;9.166;2023-07-08T08:41:32;6.03;;;3.20;;
23632;SDS011;11993;48.748;9.166;2023-07-08T08:43:59;10.50;;;3.47;;
23632;SDS011;11993;48.748;9.166;2023-07-08T08:46:30;4.15;;;3.03;;
23632;SDS011;11993;48.748;9.166;2023-07-08T08:51:45;8.32;;;3.08;;
23632;SDS011;11993;48.748;9.166;2023-07-08T08:54:11;4.95;;;3.03;;
23632;SDS011;11993;48.748;9.166;2023-07-08T08:57:20;7.88;;;3.17;;
23632;SDS011;11993;48.748;9.166;2023-07-08T09:01:55;7.57;;;3.15;;
23632;SDS011;11993;48.748;9.166;2023-07-08T09:04:23;6.22;;;3.75;;
23632;SDS011;11993;48.748;9.166;2023-07-08T09:06:52;5.95;;;3.38;;
23632;SDS011;11993;48.748;9.166;2023-07-08T09:09:28;4.88;;;2.83;;
23632;SDS011;11993;48.748;9.166;2023-07-08T09:12:03;6.57;;;2.75;;
23632;SDS011;11993;48.748;9.166;2023-07-08T09:14:32;4.55;;;2.65;;
23632;SDS011;11993;48.748;9.166;2023-07-08T09:17:22;4.32;;;2.47;;
23632;SDS011;11993;48.748;9.166;2023-07-08T09:22:51;4.32;;;2.85;;
23632;SDS011;11993;48.748;9.166;2023-07-08T09:28:07;5.47;;;2.72;;
23632;SDS011;11993;48.748;9.166;2023-07-08T09:30:33;5.63;;;3.03;;
23632;SDS011;11993;48.748;9.166;2023-07-08T09:33:02;5.80;;;3.03;;
23632;SDS011;11993;48.748;9.166;2023-07-08T09:35:37;5.32;;;2.38;;
23632;SDS011;11993;48.748;9.166;2023-07-08T09:38:08;6.47;;;2.60;;
23632;SDS011;11993;48.748;9.166;2023-07-08T09:40:38;9.60;;;2.97;;
23632;SDS011;11993;48.748;9.166;2023-07-08T09:43:12;7.20;;;3.08;;
23632;SDS011;11993;48.748;9.166;2023-07-08T09:45:47;6.85;;;2.55;;
23632;SDS011;11993;48.748;9.166;2023-07-08T09:48:18;7.35;;;2.72;;
23632;SDS011;11993;48.748;9.166;2023-07-08T09:50:47;7.35;;;2.83;;
23632;SDS011;11993;48.748;9.166;2023-07-08T09:53:16;4.65;;;3.00;;
23632;SDS011;11993;48.748;9.166;2023-07-08T09:55:41;7.65;;;2.78;;
23632;SDS011;11993;48.748;9.166;2023-07-08T09:58:08;4.32;;;2.50;;
23632;SDS011;11993;48.748;9.166;2023-07-08T10:00:39;7.63;;;3.35;;
23632;SDS011;11993;48.748;9.166;2023-07-08T10:03:16;7.53;;;3.28;;
23632;SDS011;11993;48.748;9.166;2023-07-08T10:05:46;4.75;;;3.17;;
23632;SDS011;11993;48.748;9.166;2023-07-08T10:08:15;6.72;;;2.90;;
23632;SDS011;11993;48.748;9.166;2023-07-08T10:10:46;8.18;;;3.28;;
23632;SDS011;11993;48.748;9.166;2023-07-08T10:15:52;9.15;;;3.95;;
23632;SDS011;11993;48.748;9.166;2023-07-08T10:18:24;10.82;;;4.38;;
23632;SDS011;11993;48.748;9.166;2023-07-08T10:23:35;7.35;;;3.45;;
23632;SDS011;11993;48.748;9.166;2023-07-08T10:26:14;9.43;;;3.83;;
23632;SDS011;11993;48.748;9.166;2023-07-08T10:34:42;6.53;;;3.75;;
23632;SDS011;11993;48.748;9.166;2023-07-08T10:37:29;5.43;;;3.00;;
23632;SDS011;11993;48.748;9.166;2023-07-08T10:48:41;6.90;;;3.10;;
23632;SDS011;11993;48.748;9.166;2023-07-08T11:05:21;8.35;;;2.97;;
23632;SDS011;11993;48.748;9.166;2023-07-08T11:10:29;6.95;;;2.92;;
23632;SDS011;11993;48.748;9.166;2023-07-08T11:13:02;7.80;;;2.60;;
23632;SDS011;11993;48.748;9.166;2023-07-08T11:15:32;5.78;;;2.72;;
23632;SDS011;11993;48.748;9.166;2023-07-08T11:18:06;5.82;;;2.90;;
23632;SDS011;11993;48.748;9.166;2023-07-08T11:20:59;5.53;;;2.83;;
23632;SDS011;11993;48.748;9.166;2023-07-08T11:23:39;6.57;;;2.97;;
23632;SDS011;11993;48.748;9.166;2023-07-08T11:26:23;5.72;;;2.70;;
23632;SDS011;11993;48.748;9.166;2023-07-08T11:28:56;3.47;;;2.38;;
23632;SDS011;11993;48.748;9.166;2023-07-08T11:31:23;5.82;;;3.22;;
23632;SDS011;11993;48.748;9.166;2023-07-08T11:33:51;7.05;;;4.45;;
23632;SDS011;11993;48.748;9.166;2023-07-08T11:36:18;7.50;;;5.22;;
23632;SDS011;11993;48.748;9.166;2023-07-08T11:39:04;5.10;;;2.83;;
23632;SDS011;11993;48.748;9.166;2023-07-08T11:41:53;5.88;;;2.67;;
23632;SDS011;11993;48.748;9.166;2023-07-08T11:44:34;4.88;;;2.63;;
23632;SDS011;11993;48.748;9.166;2023-07-08T11:47:00;6.53;;;2.83;;
23632;SDS011;11993;48.748;9.166;2023-07-08T11:49:25;8.23;;;2.92;;
23632;SDS011;11993;48.748;9.166;2023-07-08T11:51:51;6.00;;;2.58;;
23632;SDS011;11993;48.748;9.166;2023-07-08T11:54:20;6.10;;;2.65;;
23632;SDS011;11993;48.748;9.166;2023-07-08T11:59:23;3.67;;;2.28;;
23632;SDS011;11993;48.748;9.166;2023-07-08T12:04:20;4.80;;;2.58;;
23632;SDS011;11993;48.748;9.166;2023-07-08T12:07:14;6.00;;;2.45;;
23632;SDS011;11993;48.748;9.166;2023-07-08T12:09:47;8.35;;;2.75;;
23632;SDS011;11993;48.748;9.166;2023-07-08T12:12:29;5.60;;;2.80;;
23632;SDS011;11993;48.748;9.166;2023-07-08T12:14:59;3.92;;;2.70;;
23632;SDS011;11993;48.748;9.166;2023-07-08T12:17:33;3.72;;;2.63;;
23632;SDS011;11993;48.748;9.166;2023-07-08T12:20:00;4.40;;;2.75;;
23632;SDS011;11993;48.748;9.166;2023-07-08T12:22:28;5.03;;;2.63;;
23632;SDS011;11993;48.748;9.166;2023-07-08T12:24:54;4.57;;;2.25;;
23632;SDS011;11993;48.748;9.166;2023-07-08T12:27:21;5.05;;;2.55;;
23632;SDS011;11993;48.748;9.166;2023-07-08T12:29:46;4.25;;;2.47;;
23632;SDS011;11993;48.748;9.166;2023-07-08T12:32:12;5.55;;;2.20;;
23632;SDS011;11993;48.748;9.166;2023-07-08T12:34:39;6.82;;;4.68;;
23632;SDS011;11993;48.748;9.166;2023-07-08T12:37:04;7.28;;;4.00;;
23632;SDS011;11993;48.748;9.166;2023-07-08T12:39:36;4.63;;;2.55;;
23632;SDS011;11993;48.748;9.166;2023-07-08T12:42:07;7.03;;;2.53;;
23632;SDS011;11993;48.748;9.166;2023-07-08T12:44:35;4.05;;;2.30;;
23632;SDS011;11993;48.748;9.166;2023-07-08T12:47:04;6.43;;;2.25;;
23632;SDS011;11993;48.748;9.166;2023-07-08T12:49:30;3.90;;;2.25;;
23632;SDS011;11993;48.748;9.166;2023-07-08T12:51:55;3.92;;;2.30;;
23632;SDS011;11993;48.748;9.166;2023-07-08T12:54:21;4.03;;;2.53;;
23632;SDS011;11993;48.748;9.166;2023-07-08T12:56:47;6.13;;;2.50;;
23632;SDS011;11993;48.748;9.166;2023-07-08T12:59:14;6.80;;;2.67;;
23632;SDS011;11993;48.748;9.166;2023-07-08T13:01:44;4.03;;;2.40;;
23632;SDS011;11993;48.748;9.166;2023-07-08T13:04:12;5.05;;;2.53;;
23632;SDS011;11993;48.748;9.166;2023-07-08T13:06:39;5.25;;;2.17;;
23632;SDS011;11993;48.748;9.166;2023-07-08T13:11:57;3.45;;;2.17;;
23632;SDS011;11993;48.748;9.166;2023-07-08T13:14:28;6.82;;;2.42;;
23632;SDS011;11993;48.748;9.166;2023-07-08T13:16:53;5.90;;;2.53;;
23632;SDS011;11993;48.748;9.166;2023-07-08T13:19:19;4.45;;;2.00;;
23632;SDS011;11993;48.748;9.166;2023-07-08T13:21:45;5.97;;;2.55;;
23632;SDS011;11993;48.748;9.166;2023-07-08T13:24:12;3.30;;;2.20;;
23632;SDS011;11993;48.748;9.166;2023-07-08T13:26:38;4.90;;;2.30;;
23632;SDS011;11993;48.748;9.166;2023-07-08T13:29:06;6.20;;;2.22;;
23632;SDS011;11993;48.748;9.166;2023-07-08T13:31:37;4.50;;;2.17;;
23632;SDS011;11993;48.748;9.166;2023-07-08T13:34:08;4.13;;;2.50;;
23632;SDS011;11993;48.748;9.166;2023-07-08T13:36:37;4.25;;;2.35;;
23632;SDS011;11993;48.748;9.166;2023-07-08T13:39:08;9.65;;;7.15;;
23632;SDS011;11993;48.748;9.166;2023-07-08T13:41:41;4.15;;;2.20;;
23632;SDS011;11993;48.748;9.166;2023-07-08T13:44:09;5.50;;;2.00;;
23632;SDS011;11993;48.748;9.166;2023-07-08T13:46:45;4.30;;;1.98;;
23632;SDS011;11993;48.748;9.166;2023-07-08T13:49:26;4.47;;;2.20;;
23632;SDS011;11993;48.748;9.166;2023-07-08T13:52:07;4.67;;;2.10;;
23632;SDS011;11993;48.748;9.166;2023-07-08T13:54:37;5.07;;;2.25;;
23632;SDS011;11993;48.748;9.166;2023-07-08T13:57:10;4.18;;;2.22;;
23632;SDS011;11993;48.748;9.166;2023-07-08T13:59:37;5.32;;;1.80;;
23632;SDS011;11993;48.748;9.166;2023-07-08T14:02:36;4.10;;;1.92;;
23632;SDS011;11993;48.748;9.166;2023-07-08T14:04:56;4.47;;;2.20;;
23632;SDS011;11993;48.748;9.166;2023-07-08T14:07:25;4.88;;;2.20;;
23632;SDS011;11993;48.748;9.166;2023-07-08T14:09:53;8.32;;;2.45;;
23632;SDS011;11993;48.748;9.166;2023-07-08T14:12:20;3.47;;;1.70;;
23632;SDS011;11993;48.748;9.166;2023-07-08T14:14:46;4.38;;;2.25;;
23632;SDS011;11993;48.748;9.166;2023-07-08T14:17:12;4.32;;;2.17;;
23632;SDS011;11993;48.748;9.166;2023-07-08T14:19:42;6.38;;;2.38;;
23632;SDS011;11993;48.748;9.166;2023-07-08T14:24:39;6.18;;;2.20;;
23632;SDS011;11993;48.748;9.166;2023-07-08T14:27:08;6.10;;;2.28;;
23632;SDS011;11993;48.748;9.166;2023-07-08T14:29:37;4.07;;;2.35;;
23632;SDS011;11993;48.748;9.166;2023-07-08T14:32:03;6.90;;;2.58;;
23632;SDS011;11993;48.748;9.166;2023-07-08T14:34:29;4.38;;;2.30;;
23632;SDS011;11993;48.748;9.166;2023-07-08T14:36:58;6.28;;;2.38;;
23632;SDS011;11993;48.748;9.166;2023-07-08T14:39:23;3.47;;;2.40;;
23632;SDS011;11993;48.748;9.166;2023-07-08T14:41:49;4.18;;;2.10;;
23632;SDS011;11993;48.748;9.166;2023-07-08T14:44:18;5.32;;;2.63;;
23632;SDS011;11993;48.748;9.166;2023-07-08T14:46:44;4.60;;;2.20;;
23632;SDS011;11993;48.748;9.166;2023-07-08T14:49:17;5.88;;;2.47;;
23632;SDS011;11993;48.748;9.166;2023-07-08T14:51:44;4.97;;;2.35;;
23632;SDS011;11993;48.748;9.166;2023-07-08T14:54:10;6.32;;;2.10;;
23632;SDS011;11993;48.748;9.166;2023-07-08T14:56:36;5.28;;;2.17;;
23632;SDS011;11993;48.748;9.166;2023-07-08T14:59:02;3.72;;;2.13;;
23632;SDS011;11993;48.748;9.166;2023-07-08T15:01:28;5.70;;;2.38;;
23632;SDS011;11993;48.748;9.166;2023-07-08T15:03:55;5.90;;;2.17;;
23632;SDS011;11993;48.748;9.166;2023-07-08T15:06:21;5.07;;;2.10;;
23632;SDS011;11993;48.748;9.166;2023-07-08T15:08:47;6.22;;;2.65;;
23632;SDS011;11993;48.748;9.166;2023-07-08T15:11:13;4.82;;;2.13;;
23632;SDS011;11993;48.748;9.166;2023-07-08T15:13:39;4.30;;;2.08;;
23632;SDS011;11993;48.748;9.166;2023-07-08T15:16:10;4.53;;;2.55;;
23632;SDS011;11993;48.748;9.166;2023-07-08T15:18:41;3.50;;;2.58;;
23632;SDS011;11993;48.748;9.166;2023-07-08T15:21:09;6.65;;;4.28;;
23632;SDS011;11993;48.748;9.166;2023-07-08T15:23:39;4.00;;;2.47;;
23632;SDS011;11993;48.748;9.166;2023-07-08T15:26:05;3.50;;;2.33;;
23632;SDS011;11993;48.748;9.166;2023-07-08T15:28:44;6.35;;;2.67;;
23632;SDS011;11993;48.748;9.166;2023-07-08T15:31:18;4.50;;;2.25;;
23632;SDS011;11993;48.748;9.166;2023-07-08T15:33:45;11.13;;;2.63;;
23632;SDS011;11993;48.748;9.166;2023-07-08T15:36:11;4.07;;;2.15;;
23632;SDS011;11993;48.748;9.166;2023-07-08T15:38:39;4.28;;;2.22;;
23632;SDS011;11993;48.748;9.166;2023-07-08T15:41:05;5.53;;;2.40;;
23632;SDS011;11993;48.748;9.166;2023-07-08T15:43:44;6.43;;;2.45;;
23632;SDS011;11993;48.748;9.166;2023-07-08T15:46:09;9.65;;;2.60;;
23632;SDS011;11993;48.748;9.166;2023-07-08T15:48:35;4.97;;;2.47;;
23632;SDS011;11993;48.748;9.166;2023-07-08T15:51:01;5.18;;;1.98;;